Time;durP1;ratioP1;P1;durP2;ratioP2;P2;SDS_P1;SDS_P2;PMS_P1;PMS_P2;Temp;Humidity;BMP_temperature;BMP_pressure;BME280_temperature;BME280_humidity;BME280_pressure;Samples;Min_cycle;Max_cycle;Signal;HPM_P1;HPM_P2
2022/02/11 00:00:10;;;;;;;9.03;5.60;;;3.00;99.90;;;;;;5022181;28;20259;-68
2022/02/11 00:07:56;;;;;;;13.83;6.07;;;2.90;99.90;;;;;;5028662;28;20636;-69
2022/02/11 00:10:25;;;;;;;9.30;5.20;;;2.80;99.90;;;;;;5026721;28;20209;-69
2022/02/11 00:12:54;;;;;;;12.03;5.40;;;2.80;99.90;;;;;;5029001;28;20260;-68
2022/02/11 00:15:42;;;;;;;7.00;5.20;;;2.80;99.90;;;;;;5028476;28;20193;-69
2022/02/11 00:18:12;;;;;;;10.50;5.27;;;2.80;99.90;;;;;;5041616;28;20186;-69
2022/02/11 00:20:46;;;;;;;10.77;5.63;;;2.80;99.90;;;;;;5026893;28;20258;-69
2022/02/11 00:23:15;;;;;;;11.07;5.43;;;2.80;99.90;;;;;;5031337;28;20259;-69
2022/02/11 00:25:49;;;;;;;11.43;5.20;;;2.80;99.90;;;;;;5022689;28;20201;-69
2022/02/11 00:31:32;;;;;;;9.90;5.40;;;2.80;99.90;;;;;;5023957;28;20288;-68
2022/02/11 00:34:00;;;;;;;9.23;4.97;;;2.70;99.90;;;;;;5035180;28;20556;-69
2022/02/11 00:36:34;;;;;;;14.33;5.10;;;2.70;99.90;;;;;;5029012;28;20225;-68
2022/02/11 00:39:24;;;;;;;18.00;6.00;;;2.70;99.90;;;;;;5021866;28;20224;-69
2022/02/11 00:53:43;;;;;;;16.63;4.83;;;2.60;99.90;;;;;;5026295;28;20252;-69
2022/02/11 01:04:33;;;;;;;12.20;4.60;;;2.70;99.90;;;;;;5041655;28;20213;-69
2022/02/11 01:07:01;;;;;;;15.70;5.60;;;2.70;99.90;;;;;;5058159;28;20229;-69
2022/02/11 01:09:31;;;;;;;10.47;4.47;;;2.70;99.90;;;;;;5027783;28;21156;-69
2022/02/11 01:12:03;;;;;;;10.97;5.17;;;2.60;99.90;;;;;;5034819;28;20216;-69
2022/02/11 01:14:34;;;;;;;13.07;4.27;;;2.60;99.90;;;;;;5018422;28;20251;-69
2022/02/11 01:17:11;;;;;;;12.07;4.23;;;2.60;99.90;;;;;;5053793;28;20205;-68
2022/02/11 01:19:51;;;;;;;7.37;3.93;;;2.70;99.90;;;;;;5041567;28;20654;-69
2022/02/11 01:22:31;;;;;;;18.33;4.70;;;2.60;99.90;;;;;;5038732;28;20308;-68
2022/02/11 01:27:55;;;;;;;12.83;4.40;;;2.60;99.90;;;;;;5022750;28;20245;-68
2022/02/11 01:30:52;;;;;;;11.70;4.20;;;2.70;99.90;;;;;;5028241;28;20201;-69
2022/02/11 01:36:28;;;;;;;13.90;4.60;;;2.60;99.90;;;;;;5016200;28;20205;-69
2022/02/11 01:39:27;;;;;;;14.87;4.40;;;2.60;99.90;;;;;;5022955;28;20279;-68
2022/02/11 01:48:03;;;;;;;9.17;4.53;;;2.80;99.90;;;;;;5028461;28;20254;-69
2022/02/11 01:50:49;;;;;;;10.43;4.13;;;2.90;99.90;;;;;;5022370;28;20204;-69
2022/02/11 01:53:29;;;;;;;9.47;4.07;;;3.00;99.90;;;;;;5025089;28;20209;-69
2022/02/11 01:56:09;;;;;;;12.57;4.27;;;3.00;99.90;;;;;;5018745;28;20267;-68
2022/02/11 02:23:56;;;;;;;16.90;4.03;;;3.10;99.90;;;;;;5016174;28;20285;-69
2022/02/11 02:26:37;;;;;;;12.50;3.77;;;3.10;99.90;;;;;;5025838;28;20202;-68
2022/02/11 02:57:05;;;;;;;8.97;3.70;;;3.70;99.90;;;;;;5022641;28;20284;-67
2022/02/11 02:59:56;;;;;;;11.23;3.27;;;3.70;99.90;;;;;;5037716;28;20189;-68
2022/02/11 03:52:54;;;;;;;12.27;3.13;;;3.60;99.90;;;;;;5023480;28;20683;-68
2022/02/11 04:23:49;;;;;;;16.40;3.70;;;3.70;99.90;;;;;;5032971;28;20197;-67
2022/02/11 04:27:11;;;;;;;13.87;3.47;;;3.80;99.90;;;;;;5028266;28;20296;-68
2022/02/11 04:57:00;;;;;;;12.07;3.67;;;4.10;99.90;;;;;;5020804;28;20226;-67
2022/02/11 04:59:46;;;;;;;13.57;3.63;;;4.10;99.90;;;;;;5032003;28;20745;-68
2022/02/11 05:02:14;;;;;;;14.90;3.40;;;4.10;99.90;;;;;;5025688;28;20667;-67
2022/02/11 05:04:43;;;;;;;10.60;3.73;;;4.10;99.90;;;;;;5023180;28;20228;-68
2022/02/11 05:07:11;;;;;;;14.30;3.70;;;4.10;99.90;;;;;;5030269;28;20291;-68
2022/02/11 05:09:41;;;;;;;16.37;3.70;;;4.10;99.90;;;;;;5018857;28;20205;-68
2022/02/11 05:12:11;;;;;;;13.20;3.90;;;4.10;99.90;;;;;;5024909;28;20225;-68
2022/02/11 05:14:39;;;;;;;15.17;4.70;;;4.10;99.90;;;;;;5022184;28;20283;-68
2022/02/11 05:17:07;;;;;;;15.93;5.13;;;4.20;99.90;;;;;;5029722;28;20293;-68
2022/02/11 05:19:36;;;;;;;15.57;3.97;;;4.10;99.90;;;;;;5026659;28;20276;-68
2022/02/11 05:22:05;;;;;;;10.67;3.50;;;4.10;99.90;;;;;;5023751;28;20277;-68
2022/02/11 05:24:34;;;;;;;14.50;3.27;;;4.20;99.90;;;;;;5021632;28;20225;-68
2022/02/11 05:27:02;;;;;;;12.50;3.00;;;4.20;99.90;;;;;;5028151;28;20190;-68
2022/02/11 05:29:32;;;;;;;15.77;4.10;;;4.30;99.90;;;;;;5027155;28;20249;-68
2022/02/11 05:32:00;;;;;;;14.40;4.30;;;4.30;99.90;;;;;;5028620;28;20259;-68
2022/02/11 05:34:30;;;;;;;8.53;4.07;;;4.30;99.90;;;;;;5023590;28;20540;-68
2022/02/11 05:36:59;;;;;;;14.07;4.10;;;4.40;99.90;;;;;;5019394;28;20201;-68
2022/02/11 05:39:27;;;;;;;14.50;4.60;;;4.40;99.90;;;;;;5037488;28;20463;-67
2022/02/11 05:41:56;;;;;;;10.23;3.77;;;4.40;99.90;;;;;;5019130;28;20768;-67
2022/02/11 05:44:24;;;;;;;10.73;3.57;;;4.40;99.90;;;;;;5016997;28;20213;-68
2022/02/11 05:46:54;;;;;;;14.93;3.60;;;4.50;99.90;;;;;;5021406;28;20198;-68
2022/02/11 05:49:22;;;;;;;12.20;4.13;;;4.50;99.90;;;;;;5019440;28;20312;-67
2022/02/11 05:51:51;;;;;;;11.17;3.63;;;4.40;99.90;;;;;;5024823;28;20225;-67
2022/02/11 05:54:19;;;;;;;13.53;3.80;;;4.40;99.90;;;;;;5023375;28;20197;-68
2022/02/11 05:56:47;;;;;;;19.13;3.80;;;4.30;99.90;;;;;;5024228;28;20236;-68
2022/02/11 05:59:23;;;;;;;12.00;3.37;;;4.30;99.90;;;;;;5016158;28;20327;-68
2022/02/11 06:01:53;;;;;;;12.53;4.00;;;4.30;99.90;;;;;;5016383;28;20197;-68
2022/02/11 06:04:24;;;;;;;22.67;7.10;;;4.30;99.90;;;;;;5024545;28;20192;-68
2022/02/11 06:06:57;;;;;;;17.30;5.70;;;4.30;99.90;;;;;;5017105;28;20259;-67
2022/02/11 06:09:28;;;;;;;16.27;6.93;;;4.30;99.90;;;;;;5026182;28;20237;-68
2022/02/11 06:11:57;;;;;;;18.57;8.90;;;4.20;99.90;;;;;;5020846;28;20228;-67
2022/02/11 06:14:25;;;;;;;15.20;7.07;;;4.20;99.90;;;;;;5020010;28;20660;-68
2022/02/11 06:16:54;;;;;;;18.20;5.53;;;4.10;99.90;;;;;;5023577;28;20293;-67
2022/02/11 06:19:23;;;;;;;11.60;4.30;;;4.00;99.90;;;;;;5027378;28;20193;-67
2022/02/11 06:21:51;;;;;;;15.23;3.87;;;3.90;99.90;;;;;;5025427;28;20619;-68
2022/02/11 06:24:20;;;;;;;14.80;3.83;;;3.90;99.90;;;;;;5032401;28;20549;-68
2022/02/11 06:26:48;;;;;;;11.43;4.20;;;3.80;99.90;;;;;;5020634;28;20613;-67
2022/02/11 06:29:17;;;;;;;15.57;4.17;;;3.80;99.90;;;;;;5026261;28;20291;-68
2022/02/11 06:31:46;;;;;;;7.83;3.70;;;3.70;99.90;;;;;;5039222;28;20729;-68
2022/02/11 06:34:19;;;;;;;16.63;4.20;;;3.60;99.90;;;;;;5022138;28;20692;-68
2022/02/11 06:36:48;;;;;;;14.43;4.53;;;3.50;99.90;;;;;;5021985;28;20240;-68
2022/02/11 06:39:16;;;;;;;11.40;4.17;;;3.40;99.90;;;;;;5038120;28;20692;-68
2022/02/11 06:41:45;;;;;;;13.80;4.60;;;3.40;99.90;;;;;;5024039;28;20806;-67
2022/02/11 06:44:13;;;;;;;19.93;5.30;;;3.40;99.90;;;;;;5026699;28;20776;-68
2022/02/11 06:46:42;;;;;;;15.93;4.60;;;3.40;99.90;;;;;;5041496;28;20189;-68
2022/02/11 06:49:11;;;;;;;27.73;7.00;;;3.40;99.90;;;;;;5025318;28;20734;-67
2022/02/11 06:51:43;;;;;;;16.63;6.43;;;3.30;99.90;;;;;;5029022;28;20206;-68
2022/02/11 06:54:11;;;;;;;24.37;6.53;;;3.30;99.90;;;;;;5025787;28;20198;-68
2022/02/11 06:56:41;;;;;;;19.13;6.33;;;3.20;99.90;;;;;;5031294;28;20190;-68
2022/02/11 06:59:09;;;;;;;16.77;6.37;;;3.30;99.90;;;;;;5032809;28;20740;-68
2022/02/11 07:01:38;;;;;;;15.33;5.23;;;3.20;99.90;;;;;;5025653;28;20192;-67
2022/02/11 07:04:14;;;;;;;20.50;5.47;;;3.30;99.90;;;;;;5022280;28;21684;-67
2022/02/11 07:06:43;;;;;;;22.93;5.07;;;3.30;99.90;;;;;;5026777;28;20233;-68
2022/02/11 07:09:13;;;;;;;17.60;4.50;;;3.30;99.90;;;;;;5041905;28;20232;-68
2022/02/11 07:11:43;;;;;;;17.80;4.20;;;3.30;99.90;;;;;;5031119;28;20748;-67
2022/02/11 07:14:12;;;;;;;13.43;4.47;;;3.30;99.90;;;;;;5031079;28;20840;-68
2022/02/11 07:16:40;;;;;;;17.63;5.07;;;3.30;99.90;;;;;;5025532;28;20263;-68
2022/02/11 07:19:11;;;;;;;18.43;4.10;;;3.30;99.90;;;;;;5021188;28;20676;-67
2022/02/11 07:21:40;;;;;;;18.20;4.50;;;3.20;99.90;;;;;;5023335;28;20255;-68
2022/02/11 07:24:10;;;;;;;22.47;4.33;;;3.30;99.90;;;;;;5028600;28;20205;-68
2022/02/11 07:26:39;;;;;;;14.87;4.40;;;3.30;99.90;;;;;;5030659;28;20268;-68
2022/02/11 07:29:07;;;;;;;12.00;4.90;;;3.40;99.90;;;;;;5023112;28;20229;-68
2022/02/11 07:31:35;;;;;;;13.00;4.73;;;3.30;99.90;;;;;;5023510;28;21026;-68
2022/02/11 07:34:04;;;;;;;15.27;4.10;;;3.40;99.90;;;;;;5019700;28;20686;-68
2022/02/11 07:36:32;;;;;;;11.10;4.10;;;3.40;99.90;;;;;;5026400;28;20355;-68
2022/02/11 07:39:01;;;;;;;13.93;3.67;;;3.40;99.90;;;;;;5029394;28;20200;-68
2022/02/11 07:41:31;;;;;;;12.17;4.03;;;3.40;99.90;;;;;;5021475;28;20198;-68
2022/02/11 07:43:59;;;;;;;10.63;3.87;;;3.40;99.90;;;;;;5029150;28;20208;-68
2022/02/11 07:46:28;;;;;;;11.83;3.83;;;3.40;99.90;;;;;;5051716;28;20202;-68
2022/02/11 07:49:03;;;;;;;14.90;4.20;;;3.50;99.90;;;;;;5031114;28;20650;-68
2022/02/11 07:51:31;;;;;;;16.97;4.13;;;3.50;99.90;;;;;;5026052;28;20233;-68
2022/02/11 07:53:59;;;;;;;19.63;4.73;;;3.60;99.90;;;;;;5041082;28;20877;-68
2022/02/11 07:56:30;;;;;;;13.47;4.57;;;3.60;99.90;;;;;;5028578;28;20728;-68
2022/02/11 07:59:00;;;;;;;18.50;4.47;;;3.70;99.90;;;;;;5020624;28;20930;-68
2022/02/11 08:01:29;;;;;;;14.20;4.00;;;3.80;99.90;;;;;;5034188;28;20252;-68
2022/02/11 08:03:57;;;;;;;9.97;3.70;;;3.90;99.90;;;;;;5019438;28;20220;-68
2022/02/11 08:06:28;;;;;;;10.40;3.90;;;4.00;99.90;;;;;;5024458;28;20234;-68
2022/02/11 08:08:57;;;;;;;18.67;4.30;;;4.00;99.90;;;;;;5027995;28;20210;-68
2022/02/11 08:11:25;;;;;;;7.70;3.80;;;4.10;99.90;;;;;;5035631;28;20686;-68
2022/02/11 08:13:55;;;;;;;14.07;3.60;;;4.10;99.90;;;;;;5023969;28;20683;-67
2022/02/11 08:16:24;;;;;;;17.10;3.87;;;4.10;99.90;;;;;;5022896;28;20223;-68
2022/02/11 08:18:52;;;;;;;15.07;4.13;;;4.20;99.90;;;;;;5028199;28;20220;-68
2022/02/11 08:21:23;;;;;;;14.17;4.00;;;4.30;99.90;;;;;;5022700;28;20190;-68
2022/02/11 08:23:52;;;;;;;17.23;4.00;;;4.40;99.90;;;;;;5030435;28;20209;-68
2022/02/11 08:26:20;;;;;;;14.90;4.23;;;4.40;99.90;;;;;;5028220;28;20204;-68
2022/02/11 08:28:48;;;;;;;10.90;3.73;;;4.50;99.90;;;;;;5023658;28;20609;-69
2022/02/11 08:31:18;;;;;;;16.27;3.67;;;4.50;99.90;;;;;;5032338;28;20205;-68
2022/02/11 08:33:49;;;;;;;22.00;4.37;;;4.60;99.90;;;;;;5021850;28;20667;-68
2022/02/11 08:36:17;;;;;;;19.90;4.33;;;4.70;99.90;;;;;;5020975;28;20202;-68
2022/02/11 08:38:46;;;;;;;15.93;4.10;;;4.80;99.90;;;;;;5022060;28;20714;-68
2022/02/11 08:41:14;;;;;;;12.23;4.10;;;5.00;99.90;;;;;;5026365;28;20201;-68
2022/02/11 08:43:43;;;;;;;16.60;4.50;;;5.00;99.90;;;;;;5024402;28;20567;-68
2022/02/11 08:46:12;;;;;;;16.00;3.97;;;5.00;99.90;;;;;;5028034;28;20212;-68
2022/02/11 08:48:42;;;;;;;22.83;4.67;;;5.20;99.90;;;;;;5023043;28;20233;-68
2022/02/11 08:51:11;;;;;;;16.43;4.17;;;5.40;99.90;;;;;;5043013;28;20854;-68
2022/02/11 08:53:39;;;;;;;14.47;4.30;;;5.60;99.90;;;;;;5025741;28;20252;-68
2022/02/11 08:56:09;;;;;;;14.50;4.63;;;5.80;99.90;;;;;;5022576;28;20206;-68
2022/02/11 08:58:38;;;;;;;13.03;4.50;;;5.90;99.90;;;;;;5025640;28;20189;-68
2022/02/11 09:01:06;;;;;;;19.97;7.60;;;6.00;99.90;;;;;;5036632;28;20193;-68
2022/02/11 09:03:35;;;;;;;20.57;6.00;;;6.10;99.90;;;;;;5036788;28;20198;-68
2022/02/11 09:06:05;;;;;;;18.90;5.93;;;6.20;99.90;;;;;;5030516;28;20531;-68
2022/02/11 09:08:35;;;;;;;17.57;5.57;;;6.20;99.90;;;;;;5029474;28;20202;-68
2022/02/11 09:11:04;;;;;;;14.27;5.47;;;6.20;99.90;;;;;;5019156;28;20220;-68
2022/02/11 09:13:33;;;;;;;16.53;5.00;;;6.00;99.90;;;;;;5020395;28;20664;-68
2022/02/11 09:16:04;;;;;;;16.23;4.23;;;5.90;99.90;;;;;;5023356;28;20194;-68
2022/02/11 09:18:35;;;;;;;11.03;4.60;;;5.80;99.90;;;;;;5012424;28;20559;-68
2022/02/11 09:21:06;;;;;;;12.23;3.97;;;5.80;99.90;;;;;;5031175;28;20198;-68
2022/02/11 09:23:34;;;;;;;16.03;4.07;;;5.90;99.90;;;;;;5020144;28;20684;-68
2022/02/11 09:26:04;;;;;;;17.03;4.10;;;6.20;99.90;;;;;;5019853;28;20194;-69
2022/02/11 09:28:33;;;;;;;20.57;4.83;;;6.60;99.90;;;;;;5035422;28;20694;-68
2022/02/11 09:31:01;;;;;;;20.03;4.67;;;6.90;99.90;;;;;;5028816;28;20691;-68
2022/02/11 09:33:30;;;;;;;16.83;4.23;;;7.10;99.90;;;;;;5039669;28;20802;-69
2022/02/11 09:35:58;;;;;;;19.60;4.27;;;7.40;99.90;;;;;;5022070;28;20292;-68
2022/02/11 09:38:28;;;;;;;17.47;4.60;;;7.80;99.90;;;;;;5025235;28;20206;-68
2022/02/11 09:40:57;;;;;;;10.03;4.00;;;8.00;99.90;;;;;;5018685;28;20227;-68
2022/02/11 09:43:27;;;;;;;15.30;4.10;;;8.20;99.90;;;;;;5028148;28;20193;-68
2022/02/11 09:45:57;;;;;;;15.50;4.10;;;8.40;99.90;;;;;;5018216;28;20208;-67
2022/02/11 09:48:24;;;;;;;11.70;3.70;;;8.70;99.90;;;;;;5020188;28;20284;-67
2022/02/11 09:50:55;;;;;;;15.63;4.67;;;8.90;99.90;;;;;;5021902;28;20213;-68
2022/02/11 09:53:29;;;;;;;13.33;4.10;;;9.00;99.90;;;;;;5022972;28;20197;-68
2022/02/11 09:55:58;;;;;;;17.17;4.60;;;9.30;99.90;;;;;;5018158;28;20189;-68
2022/02/11 09:58:29;;;;;;;20.77;4.90;;;9.20;99.90;;;;;;5020296;28;20201;-68
2022/02/11 10:00:58;;;;;;;12.30;4.10;;;9.30;99.90;;;;;;5020251;28;20219;-68
2022/02/11 10:03:26;;;;;;;10.40;3.60;;;9.50;99.90;;;;;;5020147;28;20207;-68
2022/02/11 10:05:57;;;;;;;12.17;4.07;;;9.70;99.90;;;;;;5022661;28;20232;-68
2022/02/11 10:08:29;;;;;;;8.83;3.70;;;9.80;99.90;;;;;;5017209;28;20213;-68
2022/02/11 10:10:58;;;;;;;14.93;3.77;;;10.00;99.90;;;;;;5020023;28;20202;-68
2022/02/11 10:13:30;;;;;;;12.70;3.43;;;10.20;99.90;;;;;;5035022;28;20205;-69
2022/02/11 10:16:06;;;;;;;13.10;3.77;;;10.30;99.90;;;;;;5026191;28;20197;-68
2022/02/11 10:18:35;;;;;;;9.67;3.20;;;10.40;99.90;;;;;;5020476;28;20208;-68
2022/02/11 10:21:04;;;;;;;14.23;3.00;;;10.50;99.90;;;;;;5020334;28;20205;-68
2022/02/11 10:23:36;;;;;;;13.33;3.43;;;10.80;99.90;;;;;;5021819;28;20596;-69
2022/02/11 10:26:07;;;;;;;5.83;2.87;;;10.80;99.90;;;;;;5023097;28;20189;-68
2022/02/11 10:28:38;;;;;;;10.87;3.50;;;10.80;99.90;;;;;;5014994;28;20643;-69
2022/02/11 10:31:11;;;;;;;10.90;2.80;;;10.70;99.90;;;;;;5016515;28;20232;-68
2022/02/11 10:34:00;;;;;;;15.17;3.10;;;10.80;99.90;;;;;;5025640;28;20217;-68
2022/02/11 10:36:31;;;;;;;13.00;3.00;;;11.10;99.90;;;;;;5027355;28;20280;-68
2022/02/11 10:39:22;;;;;;;14.33;3.50;;;11.30;99.90;;;;;;5025920;28;20204;-69
2022/02/11 10:41:53;;;;;;;12.67;3.37;;;11.20;99.90;;;;;;5023053;28;20210;-68
2022/02/11 10:44:24;;;;;;;12.80;3.47;;;11.30;99.90;;;;;;5022421;28;20224;-68
2022/02/11 10:47:00;;;;;;;11.57;2.83;;;11.80;99.90;;;;;;5027566;28;20190;-68
2022/02/11 10:49:33;;;;;;;7.00;2.57;;;12.10;99.90;;;;;;5023408;28;20205;-68
2022/02/11 10:52:13;;;;;;;12.60;3.13;;;12.30;99.90;;;;;;5021045;28;20704;-68
2022/02/11 10:54:44;;;;;;;8.63;2.87;;;12.40;99.90;;;;;;5018280;28;20213;-69
2022/02/11 10:57:15;;;;;;;11.10;3.10;;;12.60;99.90;;;;;;5019279;28;20315;-68
2022/02/11 10:59:45;;;;;;;15.30;2.97;;;12.50;99.90;;;;;;5034494;28;20207;-69
2022/02/11 11:02:17;;;;;;;9.57;2.83;;;12.20;99.90;;;;;;5027523;28;20191;-68
2022/02/11 11:04:46;;;;;;;11.80;3.20;;;11.80;99.90;;;;;;5017208;28;20288;-69
2022/02/11 11:07:19;;;;;;;9.20;3.07;;;11.60;99.90;;;;;;5023614;28;20237;-68
2022/02/11 11:10:12;;;;;;;14.80;2.90;;;11.20;99.90;;;;;;5025617;28;20300;-68
2022/02/11 11:12:44;;;;;;;8.93;2.93;;;11.20;99.90;;;;;;5022514;28;20221;-68
2022/02/11 11:15:16;;;;;;;10.27;2.90;;;11.10;99.90;;;;;;5039335;28;20245;-68
2022/02/11 11:17:49;;;;;;;11.40;3.27;;;10.80;99.90;;;;;;5025804;28;20650;-69
2022/02/11 11:20:20;;;;;;;7.20;2.60;;;10.80;99.90;;;;;;5021993;28;20652;-69
2022/02/11 11:23:02;;;;;;;13.43;3.00;;;11.20;99.90;;;;;;5022297;28;20757;-68
2022/02/11 11:25:52;;;;;;;13.30;2.97;;;11.70;99.90;;;;;;5021830;28;20236;-69
2022/02/11 11:28:40;;;;;;;9.50;2.53;;;12.00;99.90;;;;;;5027594;28;20194;-68
2022/02/11 11:31:15;;;;;;;9.03;2.60;;;12.20;99.90;;;;;;5023085;28;20214;-69
2022/02/11 11:33:44;;;;;;;10.20;2.30;;;12.40;99.90;;;;;;5027412;28;20236;-69
2022/02/11 11:36:15;;;;;;;13.60;3.27;;;12.40;99.90;;;;;;5023959;28;20208;-69
2022/02/11 11:38:48;;;;;;;9.40;3.10;;;12.50;99.90;;;;;;5025384;28;20276;-69
2022/02/11 11:41:23;;;;;;;9.70;2.70;;;12.60;99.90;;;;;;5025121;28;20247;-69
2022/02/11 11:43:53;;;;;;;8.00;2.40;;;12.80;99.90;;;;;;5026561;28;20197;-69
2022/02/11 11:46:33;;;;;;;9.20;2.67;;;12.90;99.90;;;;;;5028176;28;20601;-69
2022/02/11 11:49:10;;;;;;;13.53;3.07;;;13.00;99.90;;;;;;5024204;28;20194;-69
2022/02/11 11:52:04;;;;;;;12.27;3.00;;;13.10;99.90;;;;;;5026037;28;20193;-69
2022/02/11 11:54:33;;;;;;;6.00;2.57;;;13.40;99.90;;;;;;5019077;28;20196;-69
2022/02/11 11:57:11;;;;;;;5.53;2.53;;;13.40;99.90;;;;;;5021279;28;20290;-69
2022/02/11 11:59:44;;;;;;;13.30;2.77;;;12.70;99.90;;;;;;5023348;28;20273;-69
2022/02/11 12:02:17;;;;;;;11.53;2.87;;;12.20;99.90;;;;;;5020613;28;20712;-69
2022/02/11 12:05:41;;;;;;;10.77;3.17;;;11.70;99.90;;;;;;5023824;28;20292;-69
2022/02/11 12:08:14;;;;;;;11.33;2.53;;;11.00;99.90;;;;;;5035104;28;20194;-69
2022/02/11 12:10:46;;;;;;;11.53;2.50;;;10.80;99.90;;;;;;5027763;28;20208;-69
2022/02/11 12:13:18;;;;;;;6.80;2.63;;;11.10;99.90;;;;;;5025575;28;20240;-69
2022/02/11 12:15:46;;;;;;;7.70;2.53;;;11.60;99.90;;;;;;5029643;28;20334;-69
2022/02/11 12:18:16;;;;;;;6.53;2.60;;;12.20;99.90;;;;;;5026129;28;20561;-69
2022/02/11 12:20:45;;;;;;;14.37;2.73;;;12.70;99.90;;;;;;5028009;28;20789;-69
2022/02/11 12:28:47;;;;;;;10.37;2.60;;;13.20;99.90;;;;;;5023535;28;20204;-68
2022/02/11 12:31:24;;;;;;;6.97;2.53;;;12.70;99.90;;;;;;5023638;28;20539;-69
2022/02/11 12:33:52;;;;;;;7.33;2.50;;;12.50;99.90;;;;;;5024958;28;20295;-69
2022/02/11 12:36:20;;;;;;;7.17;2.50;;;12.20;99.90;;;;;;5027459;28;20193;-69
2022/02/11 12:38:57;;;;;;;9.63;2.50;;;12.10;99.90;;;;;;5021406;28;20329;-69
2022/02/11 12:41:41;;;;;;;8.53;2.37;;;12.30;99.90;;;;;;5030069;28;20198;-69
2022/02/11 12:44:11;;;;;;;11.77;2.63;;;12.20;99.90;;;;;;5023415;28;20224;-69
2022/02/11 12:46:40;;;;;;;10.10;2.53;;;11.90;99.90;;;;;;5026014;28;20202;-69
2022/02/11 12:49:08;;;;;;;10.00;2.60;;;12.10;99.90;;;;;;5017719;28;20229;-69
2022/02/11 12:51:37;;;;;;;8.20;2.43;;;12.50;99.90;;;;;;5037503;28;21651;-69
2022/02/11 12:54:06;;;;;;;8.17;2.40;;;12.50;99.90;;;;;;5026560;28;20915;-69
2022/02/11 12:56:34;;;;;;;8.17;2.33;;;12.50;99.90;;;;;;5019330;28;20805;-69
2022/02/11 12:59:07;;;;;;;12.57;2.97;;;12.60;99.90;;;;;;5033717;28;20207;-69
2022/02/11 13:01:36;;;;;;;11.93;2.67;;;12.80;99.90;;;;;;5030969;28;20198;-69
2022/02/11 13:04:05;;;;;;;8.17;2.20;;;12.80;99.90;;;;;;5036539;28;20242;-69
2022/02/11 13:06:35;;;;;;;7.37;2.23;;;12.80;99.90;;;;;;5028088;28;20734;-69
2022/02/11 13:09:08;;;;;;;10.07;2.60;;;12.50;99.90;;;;;;5032977;28;20193;-69
2022/02/11 13:11:56;;;;;;;12.53;2.70;;;12.10;99.90;;;;;;5023177;28;20216;-69
2022/02/11 13:14:25;;;;;;;13.10;2.73;;;11.70;99.90;;;;;;5027666;28;20965;-69
2022/02/11 13:16:55;;;;;;;9.37;2.70;;;11.80;99.90;;;;;;5015456;28;20197;-69
2022/02/11 13:19:23;;;;;;;13.23;2.90;;;11.70;99.90;;;;;;5029261;28;20280;-69
2022/02/11 13:21:51;;;;;;;7.40;2.37;;;11.90;99.90;;;;;;5024843;28;20727;-69
2022/02/11 13:24:20;;;;;;;8.27;2.60;;;11.80;99.90;;;;;;5016922;28;20281;-69
2022/02/11 13:26:48;;;;;;;8.77;2.30;;;11.90;99.90;;;;;;5023622;28;20244;-69
2022/02/11 13:29:19;;;;;;;6.57;2.50;;;11.90;99.90;;;;;;5020662;28;20236;-69
2022/02/11 13:31:49;;;;;;;8.10;2.80;;;12.00;99.90;;;;;;5040370;28;20207;-69
2022/02/11 13:34:18;;;;;;;10.63;2.77;;;12.00;99.90;;;;;;5024082;28;20306;-69
2022/02/11 13:36:48;;;;;;;12.27;3.00;;;12.00;99.90;;;;;;5020579;28;20189;-69
2022/02/11 13:39:28;;;;;;;7.23;2.77;;;12.00;99.90;;;;;;5024317;28;20207;-69
2022/02/11 13:41:56;;;;;;;11.77;2.73;;;11.90;99.90;;;;;;5025831;28;20204;-69
2022/02/11 13:44:36;;;;;;;10.47;2.60;;;11.60;99.90;;;;;;5022448;28;20232;-69
2022/02/11 13:47:05;;;;;;;8.13;2.20;;;11.50;99.90;;;;;;5019865;28;20695;-69
2022/02/11 13:49:39;;;;;;;11.83;2.73;;;11.10;99.90;;;;;;5024285;28;20273;-69
2022/02/11 13:54:58;;;;;;;8.93;2.63;;;10.80;99.90;;;;;;5021123;28;20231;-69
2022/02/11 13:57:27;;;;;;;11.23;2.60;;;10.90;99.90;;;;;;5023134;28;20230;-69
2022/02/11 13:59:55;;;;;;;9.13;2.67;;;11.00;99.90;;;;;;5022566;28;20213;-69
2022/02/11 14:02:28;;;;;;;6.67;2.47;;;11.00;99.90;;;;;;5028743;28;20197;-69
2022/02/11 14:05:02;;;;;;;5.70;2.40;;;11.00;99.90;;;;;;5022389;28;20284;-69
2022/02/11 14:07:31;;;;;;;6.73;2.10;;;11.00;99.90;;;;;;5024080;28;20283;-69
2022/02/11 14:10:15;;;;;;;5.00;2.37;;;10.90;99.90;;;;;;5019615;28;20251;-69
2022/02/11 14:12:43;;;;;;;8.07;2.30;;;10.80;99.90;;;;;;5040128;28;20252;-69
2022/02/11 14:15:12;;;;;;;7.63;2.23;;;10.60;99.90;;;;;;5028713;28;20702;-69
2022/02/11 14:17:40;;;;;;;5.23;2.17;;;10.50;99.90;;;;;;5028154;28;20273;-69
2022/02/11 14:20:11;;;;;;;12.77;2.50;;;10.40;99.90;;;;;;5041484;28;20217;-70
2022/02/11 14:22:39;;;;;;;13.87;2.80;;;10.20;99.90;;;;;;5040939;28;20758;-69
2022/02/11 14:25:08;;;;;;;9.33;2.70;;;10.20;99.90;;;;;;5026674;28;20734;-69
2022/02/11 14:27:36;;;;;;;12.47;2.50;;;10.10;99.90;;;;;;5021741;28;20636;-69
2022/02/11 14:30:06;;;;;;;10.57;2.80;;;10.10;99.90;;;;;;5020926;28;20233;-69
2022/02/11 14:32:34;;;;;;;8.70;2.60;;;10.30;99.90;;;;;;5023644;28;20732;-69
2022/02/11 14:35:02;;;;;;;6.63;2.30;;;10.30;99.90;;;;;;5030030;28;20236;-69
2022/02/11 14:37:32;;;;;;;4.50;2.53;;;10.40;99.90;;;;;;5024187;28;20622;-69
2022/02/11 14:40:00;;;;;;;11.77;2.70;;;10.40;99.90;;;;;;5032934;28;20209;-69
2022/02/11 14:42:29;;;;;;;13.13;2.93;;;10.20;99.90;;;;;;5033676;28;20205;-69
2022/02/11 14:44:57;;;;;;;9.50;2.90;;;10.20;99.90;;;;;;5022402;28;20280;-69
2022/02/11 14:47:25;;;;;;;9.40;2.33;;;10.20;99.90;;;;;;5035107;28;20210;-69
2022/02/11 14:49:53;;;;;;;8.20;3.20;;;10.30;99.90;;;;;;5025875;28;20742;-69
2022/02/11 14:52:22;;;;;;;15.40;2.70;;;10.30;99.90;;;;;;5024963;28;20206;-70
2022/02/11 14:54:54;;;;;;;14.00;2.97;;;10.20;99.90;;;;;;5026602;28;20225;-69
2022/02/11 14:57:22;;;;;;;11.97;2.87;;;10.10;99.90;;;;;;5033576;28;20185;-69
2022/02/11 14:59:50;;;;;;;11.00;2.97;;;9.90;99.90;;;;;;5022789;28;20228;-70
2022/02/11 15:02:19;;;;;;;6.87;2.87;;;9.80;99.90;;;;;;5028745;28;20232;-70
2022/02/11 15:04:48;;;;;;;16.27;3.17;;;9.70;99.90;;;;;;5028984;28;20205;-70
2022/02/11 15:07:17;;;;;;;6.73;2.43;;;9.60;99.90;;;;;;5025515;28;20632;-70
2022/02/11 15:09:46;;;;;;;7.47;2.70;;;9.60;99.90;;;;;;5029765;28;20709;-70
2022/02/11 15:12:15;;;;;;;14.13;3.10;;;9.60;99.90;;;;;;5029345;28;20288;-70
2022/02/11 15:14:45;;;;;;;10.60;2.70;;;9.40;99.90;;;;;;5035212;28;20209;-70
2022/02/11 15:17:16;;;;;;;11.83;2.90;;;9.30;99.90;;;;;;5032802;28;20201;-70
2022/02/11 15:19:45;;;;;;;7.10;2.50;;;9.20;99.90;;;;;;5023370;28;20198;-70
2022/02/11 15:22:14;;;;;;;7.43;2.40;;;9.00;99.90;;;;;;5031782;28;20224;-69
2022/02/11 15:24:48;;;;;;;9.43;2.40;;;8.90;99.90;;;;;;5017347;28;20732;-70
2022/02/11 15:27:18;;;;;;;13.47;2.77;;;8.90;99.90;;;;;;5034451;28;20638;-70
2022/02/11 15:29:46;;;;;;;5.13;2.60;;;8.80;99.90;;;;;;5026038;28;20225;-69
2022/02/11 15:32:16;;;;;;;12.07;2.50;;;8.70;99.90;;;;;;5029053;28;20189;-70
2022/02/11 15:34:44;;;;;;;10.77;3.00;;;8.60;99.90;;;;;;5024926;28;20225;-70
2022/02/11 15:37:16;;;;;;;10.90;2.40;;;8.50;99.90;;;;;;5025707;28;20217;-70
2022/02/11 15:39:44;;;;;;;9.40;2.47;;;8.50;99.90;;;;;;5027297;28;20327;-70
2022/02/11 15:42:12;;;;;;;9.57;2.70;;;8.40;99.90;;;;;;5023960;28;20232;-70
2022/02/11 15:44:42;;;;;;;12.27;3.10;;;8.20;99.90;;;;;;5025835;28;20225;-70
2022/02/11 15:47:10;;;;;;;9.90;2.70;;;8.10;99.90;;;;;;5030211;28;20242;-69
2022/02/11 15:49:41;;;;;;;8.97;2.50;;;8.10;99.90;;;;;;5030715;28;20835;-70
2022/02/11 15:52:11;;;;;;;8.83;2.80;;;8.00;99.90;;;;;;5023442;28;20185;-69
2022/02/11 15:54:40;;;;;;;12.70;3.60;;;7.90;99.90;;;;;;5028614;28;20283;-70
2022/02/11 15:57:08;;;;;;;12.93;2.90;;;7.80;99.90;;;;;;5026949;28;20258;-70
2022/02/11 15:59:36;;;;;;;10.80;2.90;;;7.70;99.90;;;;;;5027867;28;20648;-70
2022/02/11 16:02:06;;;;;;;11.70;3.20;;;7.60;99.90;;;;;;5040547;28;20190;-70
2022/02/11 16:04:35;;;;;;;9.00;2.77;;;7.50;99.90;;;;;;5028595;28;20247;-70
2022/02/11 16:07:04;;;;;;;8.73;2.97;;;7.50;99.90;;;;;;5009233;28;20248;-70
2022/02/11 16:09:35;;;;;;;10.67;3.20;;;7.40;99.90;;;;;;5016291;28;20197;-70
2022/02/11 16:12:05;;;;;;;13.23;3.50;;;7.30;99.90;;;;;;5019818;28;20285;-70
2022/02/11 16:14:34;;;;;;;11.37;3.17;;;7.20;99.90;;;;;;5002570;28;20223;-70
2022/02/11 16:17:02;;;;;;;14.20;2.97;;;7.10;99.90;;;;;;5021696;28;20194;-69
2022/02/11 16:19:32;;;;;;;13.03;2.87;;;7.00;99.90;;;;;;5023573;28;20189;-70
2022/02/11 16:22:01;;;;;;;12.40;3.33;;;6.90;99.90;;;;;;5023391;28;20594;-69
2022/02/11 16:24:32;;;;;;;12.60;2.80;;;6.90;99.90;;;;;;5019050;28;20255;-69
2022/02/11 16:27:01;;;;;;;13.27;3.30;;;6.80;99.90;;;;;;5032656;28;20202;-69
2022/02/11 16:29:33;;;;;;;11.83;3.33;;;6.70;99.90;;;;;;5018568;28;20714;-69
2022/02/11 16:32:03;;;;;;;16.37;3.00;;;6.60;99.90;;;;;;5023550;28;20636;-69
2022/02/11 16:34:32;;;;;;;13.13;3.33;;;6.50;99.90;;;;;;5015286;28;20198;-70